sensor_id;sensor_type;location;lat;lon;timestamp;temperature;humidity
52787;DHT22;38661;53.152;5.846;2022-11-14T00:01:18;6.20;91.90
52787;DHT22;38661;53.152;5.846;2022-11-14T00:03:44;6.30;91.70
52787;DHT22;38661;53.152;5.846;2022-11-14T00:06:13;6.30;91.80
52787;DHT22;38661;53.152;5.846;2022-11-14T00:08:39;6.30;91.90
52787;DHT22;38661;53.152;5.846;2022-11-14T00:11:04;6.30;91.80
52787;DHT22;38661;53.152;5.846;2022-11-14T00:13:30;6.20;91.90
52787;DHT22;38661;53.152;5.846;2022-11-14T00:15:56;6.30;91.90
52787;DHT22;38661;53.152;5.846;2022-11-14T00:18:21;6.30;91.90
52787;DHT22;38661;53.152;5.846;2022-11-14T00:20:48;6.40;92.00
52787;DHT22;38661;53.152;5.846;2022-11-14T00:23:13;6.30;92.20
52787;DHT22;38661;53.152;5.846;2022-11-14T00:25:39;6.40;92.20
52787;DHT22;38661;53.152;5.846;2022-11-14T00:28:05;6.40;92.00
52787;DHT22;38661;53.152;5.846;2022-11-14T00:30:30;6.40;92.10
52787;DHT22;38661;53.152;5.846;2022-11-14T00:32:56;6.50;92.20
52787;DHT22;38661;53.152;5.846;2022-11-14T00:35:22;6.50;92.20
52787;DHT22;38661;53.152;5.846;2022-11-14T00:37:47;6.50;92.10
52787;DHT22;38661;53.152;5.846;2022-11-14T00:40:13;6.50;92.30
52787;DHT22;38661;53.152;5.846;2022-11-14T00:42:39;6.50;92.30
52787;DHT22;38661;53.152;5.846;2022-11-14T00:45:05;6.60;92.10
52787;DHT22;38661;53.152;5.846;2022-11-14T00:47:31;6.60;92.20
52787;DHT22;38661;53.152;5.846;2022-11-14T00:49:56;6.60;92.30
52787;DHT22;38661;53.152;5.846;2022-11-14T00:52:22;6.60;92.20
52787;DHT22;38661;53.152;5.846;2022-11-14T00:54:48;6.60;92.40
52787;DHT22;38661;53.152;5.846;2022-11-14T00:57:13;6.60;92.50
52787;DHT22;38661;53.152;5.846;2022-11-14T00:59:39;6.60;92.50
52787;DHT22;38661;53.152;5.846;2022-11-14T01:02:05;6.60;92.30
52787;DHT22;38661;53.152;5.846;2022-11-14T01:04:30;6.60;92.30
52787;DHT22;38661;53.152;5.846;2022-11-14T01:06:56;6.60;92.30
52787;DHT22;38661;53.152;5.846;2022-11-14T01:09:22;6.70;92.30
52787;DHT22;38661;53.152;5.846;2022-11-14T01:11:47;6.70;92.40
52787;DHT22;38661;53.152;5.846;2022-11-14T01:14:13;6.60;92.40
52787;DHT22;38661;53.152;5.846;2022-11-14T01:16:39;6.70;92.40
52787;DHT22;38661;53.152;5.846;2022-11-14T01:19:04;6.70;92.50
52787;DHT22;38661;53.152;5.846;2022-11-14T01:21:30;6.70;92.40
52787;DHT22;38661;53.152;5.846;2022-11-14T01:23:56;6.70;92.50
52787;DHT22;38661;53.152;5.846;2022-11-14T01:26:21;6.80;92.40
52787;DHT22;38661;53.152;5.846;2022-11-14T01:28:47;6.80;92.40
52787;DHT22;38661;53.152;5.846;2022-11-14T01:31:22;6.80;92.40
52787;DHT22;38661;53.152;5.846;2022-11-14T01:33:49;6.80;92.40
52787;DHT22;38661;53.152;5.846;2022-11-14T01:36:15;6.80;92.40
52787;DHT22;38661;53.152;5.846;2022-11-14T01:38:41;6.80;92.40
52787;DHT22;38661;53.152;5.846;2022-11-14T01:41:07;6.80;92.50
52787;DHT22;38661;53.152;5.846;2022-11-14T01:43:35;6.80;92.50
52787;DHT22;38661;53.152;5.846;2022-11-14T01:46:25;6.80;92.50
52787;DHT22;38661;53.152;5.846;2022-11-14T01:51:40;6.80;92.50
52787;DHT22;38661;53.152;5.846;2022-11-14T01:54:17;6.80;92.60
52787;DHT22;38661;53.152;5.846;2022-11-14T01:56:52;6.90;92.50
52787;DHT22;38661;53.152;5.846;2022-11-14T01:59:22;6.90;92.60
52787;DHT22;38661;53.152;5.846;2022-11-14T02:01:51;6.90;92.60
52787;DHT22;38661;53.152;5.846;2022-11-14T02:04:23;6.90;92.50
52787;DHT22;38661;53.152;5.846;2022-11-14T02:06:52;6.90;92.50
52787;DHT22;38661;53.152;5.846;2022-11-14T02:09:19;6.90;92.50
52787;DHT22;38661;53.152;5.846;2022-11-14T02:11:45;6.90;92.50
52787;DHT22;38661;53.152;5.846;2022-11-14T02:14:11;6.80;92.50
52787;DHT22;38661;53.152;5.846;2022-11-14T02:16:38;6.80;92.50
52787;DHT22;38661;53.152;5.846;2022-11-14T02:19:05;6.90;92.40
52787;DHT22;38661;53.152;5.846;2022-11-14T02:21:31;6.90;92.50
52787;DHT22;38661;53.152;5.846;2022-11-14T02:23:56;6.90;92.50
52787;DHT22;38661;53.152;5.846;2022-11-14T02:26:22;6.90;92.50
52787;DHT22;38661;53.152;5.846;2022-11-14T02:28:48;6.90;92.50
52787;DHT22;38661;53.152;5.846;2022-11-14T02:31:15;6.90;92.50
52787;DHT22;38661;53.152;5.846;2022-11-14T02:33:41;6.90;92.40
52787;DHT22;38661;53.152;5.846;2022-11-14T02:36:07;6.90;92.40
52787;DHT22;38661;53.152;5.846;2022-11-14T02:38:33;6.90;92.50
52787;DHT22;38661;53.152;5.846;2022-11-14T02:40:59;6.90;92.50
52787;DHT22;38661;53.152;5.846;2022-11-14T02:43:25;6.90;92.50
52787;DHT22;38661;53.152;5.846;2022-11-14T02:45:51;6.90;92.50
52787;DHT22;38661;53.152;5.846;2022-11-14T02:48:17;6.90;92.50
52787;DHT22;38661;53.152;5.846;2022-11-14T02:50:43;6.90;92.50
52787;DHT22;38661;53.152;5.846;2022-11-14T02:53:08;6.80;92.50
52787;DHT22;38661;53.152;5.846;2022-11-14T02:55:34;6.80;92.50
52787;DHT22;38661;53.152;5.846;2022-11-14T02:58:00;6.90;92.40
52787;DHT22;38661;53.152;5.846;2022-11-14T03:00:26;6.90;92.40
52787;DHT22;38661;53.152;5.846;2022-11-14T03:02:52;6.90;92.40
52787;DHT22;38661;53.152;5.846;2022-11-14T03:05:18;6.90;92.40
52787;DHT22;38661;53.152;5.846;2022-11-14T03:07:44;6.80;92.40
52787;DHT22;38661;53.152;5.846;2022-11-14T03:10:10;6.90;92.40
52787;DHT22;38661;53.152;5.846;2022-11-14T03:12:38;6.80;92.40
52787;DHT22;38661;53.152;5.846;2022-11-14T03:15:05;6.80;92.40
52787;DHT22;38661;53.152;5.846;2022-11-14T03:17:32;6.80;92.40
52787;DHT22;38661;53.152;5.846;2022-11-14T03:19:59;6.80;92.40
52787;DHT22;38661;53.152;5.846;2022-11-14T03:22:25;6.80;92.50
52787;DHT22;38661;53.152;5.846;2022-11-14T03:24:51;6.80;92.50
52787;DHT22;38661;53.152;5.846;2022-11-14T03:27:17;6.80;92.50
52787;DHT22;38661;53.152;5.846;2022-11-14T03:29:43;6.80;92.50
52787;DHT22;38661;53.152;5.846;2022-11-14T03:32:09;6.80;92.50
52787;DHT22;38661;53.152;5.846;2022-11-14T03:34:34;6.80;92.50
52787;DHT22;38661;53.152;5.846;2022-11-14T03:37:00;6.80;92.40
52787;DHT22;38661;53.152;5.846;2022-11-14T03:39:26;6.80;92.50
52787;DHT22;38661;53.152;5.846;2022-11-14T03:41:52;6.90;92.50
52787;DHT22;38661;53.152;5.846;2022-11-14T03:44:17;6.90;92.50
52787;DHT22;38661;53.152;5.846;2022-11-14T03:46:43;6.80;92.50
52787;DHT22;38661;53.152;5.846;2022-11-14T03:49:09;6.80;92.50
52787;DHT22;38661;53.152;5.846;2022-11-14T03:51:34;6.90;92.40
52787;DHT22;38661;53.152;5.846;2022-11-14T03:54:00;6.90;92.40
52787;DHT22;38661;53.152;5.846;2022-11-14T03:56:26;6.80;92.30
52787;DHT22;38661;53.152;5.846;2022-11-14T03:58:51;6.90;92.20
52787;DHT22;38661;53.152;5.846;2022-11-14T04:01:17;6.80;92.20
52787;DHT22;38661;53.152;5.846;2022-11-14T04:03:43;6.80;92.20
52787;DHT22;38661;53.152;5.846;2022-11-14T04:06:08;6.80;92.30
52787;DHT22;38661;53.152;5.846;2022-11-14T04:08:34;6.80;92.30
52787;DHT22;38661;53.152;5.846;2022-11-14T04:11:00;6.80;92.40
52787;DHT22;38661;53.152;5.846;2022-11-14T04:13:25;6.80;92.30
52787;DHT22;38661;53.152;5.846;2022-11-14T04:15:56;6.80;92.40
52787;DHT22;38661;53.152;5.846;2022-11-14T04:18:22;6.80;92.30
52787;DHT22;38661;53.152;5.846;2022-11-14T04:20:48;6.80;92.30
52787;DHT22;38661;53.152;5.846;2022-11-14T04:23:14;6.80;92.20
52787;DHT22;38661;53.152;5.846;2022-11-14T04:25:39;6.80;92.20
52787;DHT22;38661;53.152;5.846;2022-11-14T04:28:07;6.80;92.30
52787;DHT22;38661;53.152;5.846;2022-11-14T04:30:32;6.80;92.30
52787;DHT22;38661;53.152;5.846;2022-11-14T04:32:58;6.70;92.20
52787;DHT22;38661;53.152;5.846;2022-11-14T04:35:23;6.70;92.30
52787;DHT22;38661;53.152;5.846;2022-11-14T04:37:49;6.70;92.20
52787;DHT22;38661;53.152;5.846;2022-11-14T04:40:15;6.70;92.30
52787;DHT22;38661;53.152;5.846;2022-11-14T04:42:40;6.70;92.30
52787;DHT22;38661;53.152;5.846;2022-11-14T04:45:07;6.70;92.20
52787;DHT22;38661;53.152;5.846;2022-11-14T04:47:32;6.70;92.20
52787;DHT22;38661;53.152;5.846;2022-11-14T04:49:58;6.60;92.20
52787;DHT22;38661;53.152;5.846;2022-11-14T04:52:24;6.60;92.20
52787;DHT22;38661;53.152;5.846;2022-11-14T04:54:49;6.60;92.30
52787;DHT22;38661;53.152;5.846;2022-11-14T04:57:15;6.60;92.30
52787;DHT22;38661;53.152;5.846;2022-11-14T04:59:42;6.60;92.20
52787;DHT22;38661;53.152;5.846;2022-11-14T05:02:08;6.60;92.20
52787;DHT22;38661;53.152;5.846;2022-11-14T05:04:34;6.60;92.30
52787;DHT22;38661;53.152;5.846;2022-11-14T05:06:59;6.50;92.20
52787;DHT22;38661;53.152;5.846;2022-11-14T05:09:25;6.50;92.20
52787;DHT22;38661;53.152;5.846;2022-11-14T05:11:51;6.50;92.20
52787;DHT22;38661;53.152;5.846;2022-11-14T05:14:16;6.50;92.20
52787;DHT22;38661;53.152;5.846;2022-11-14T05:16:42;6.50;92.10
52787;DHT22;38661;53.152;5.846;2022-11-14T05:19:08;6.50;92.20
52787;DHT22;38661;53.152;5.846;2022-11-14T05:21:33;6.50;92.20
52787;DHT22;38661;53.152;5.846;2022-11-14T05:23:59;6.40;92.20
52787;DHT22;38661;53.152;5.846;2022-11-14T05:26:25;6.40;92.30
52787;DHT22;38661;53.152;5.846;2022-11-14T05:28:50;6.40;92.30
52787;DHT22;38661;53.152;5.846;2022-11-14T05:31:16;6.40;92.30
52787;DHT22;38661;53.152;5.846;2022-11-14T05:33:43;6.40;92.30
52787;DHT22;38661;53.152;5.846;2022-11-14T05:36:12;6.30;92.30
52787;DHT22;38661;53.152;5.846;2022-11-14T05:38:38;6.30;92.40
52787;DHT22;38661;53.152;5.846;2022-11-14T05:41:05;6.30;92.50
52787;DHT22;38661;53.152;5.846;2022-11-14T05:43:31;6.30;92.50
52787;DHT22;38661;53.152;5.846;2022-11-14T05:46:01;6.30;92.50
52787;DHT22;38661;53.152;5.846;2022-11-14T05:48:28;6.30;92.50
52787;DHT22;38661;53.152;5.846;2022-11-14T05:51:00;6.30;92.50
52787;DHT22;38661;53.152;5.846;2022-11-14T05:53:27;6.30;92.50
52787;DHT22;38661;53.152;5.846;2022-11-14T05:55:53;6.30;92.50
52787;DHT22;38661;53.152;5.846;2022-11-14T05:58:20;6.30;92.50
52787;DHT22;38661;53.152;5.846;2022-11-14T06:00:46;6.30;92.50
52787;DHT22;38661;53.152;5.846;2022-11-14T06:03:11;6.30;92.70
52787;DHT22;38661;53.152;5.846;2022-11-14T06:05:39;6.20;92.60
52787;DHT22;38661;53.152;5.846;2022-11-14T06:08:05;6.30;92.70
52787;DHT22;38661;53.152;5.846;2022-11-14T06:10:33;6.30;92.60
52787;DHT22;38661;53.152;5.846;2022-11-14T06:12:59;6.30;92.60
52787;DHT22;38661;53.152;5.846;2022-11-14T06:15:25;6.30;92.70
52787;DHT22;38661;53.152;5.846;2022-11-14T06:17:52;6.30;92.70
52787;DHT22;38661;53.152;5.846;2022-11-14T06:20:18;6.30;92.70
52787;DHT22;38661;53.152;5.846;2022-11-14T06:22:43;6.30;92.60
52787;DHT22;38661;53.152;5.846;2022-11-14T06:25:09;6.30;92.70
52787;DHT22;38661;53.152;5.846;2022-11-14T06:27:35;6.40;92.60
52787;DHT22;38661;53.152;5.846;2022-11-14T06:30:01;6.30;92.60
52787;DHT22;38661;53.152;5.846;2022-11-14T06:32:27;6.30;92.70
52787;DHT22;38661;53.152;5.846;2022-11-14T06:34:52;6.40;92.80
52787;DHT22;38661;53.152;5.846;2022-11-14T06:37:18;6.30;92.80
52787;DHT22;38661;53.152;5.846;2022-11-14T06:39:44;6.40;92.80
52787;DHT22;38661;53.152;5.846;2022-11-14T06:42:09;6.30;92.90
52787;DHT22;38661;53.152;5.846;2022-11-14T06:44:35;6.40;92.90
52787;DHT22;38661;53.152;5.846;2022-11-14T06:47:01;6.40;92.90
52787;DHT22;38661;53.152;5.846;2022-11-14T06:49:26;6.40;92.90
52787;DHT22;38661;53.152;5.846;2022-11-14T06:51:53;6.40;92.90
52787;DHT22;38661;53.152;5.846;2022-11-14T06:54:18;6.40;92.80
52787;DHT22;38661;53.152;5.846;2022-11-14T06:56:44;6.40;92.90
52787;DHT22;38661;53.152;5.846;2022-11-14T06:59:10;6.40;92.80
52787;DHT22;38661;53.152;5.846;2022-11-14T07:01:36;6.40;92.80
52787;DHT22;38661;53.152;5.846;2022-11-14T07:04:02;6.40;92.80
52787;DHT22;38661;53.152;5.846;2022-11-14T07:06:29;6.40;92.80
52787;DHT22;38661;53.152;5.846;2022-11-14T07:08:56;6.40;92.90
52787;DHT22;38661;53.152;5.846;2022-11-14T07:11:23;6.50;92.90
52787;DHT22;38661;53.152;5.846;2022-11-14T07:13:52;6.50;92.70
52787;DHT22;38661;53.152;5.846;2022-11-14T07:16:18;6.40;92.70
52787;DHT22;38661;53.152;5.846;2022-11-14T07:18:44;6.40;92.70
52787;DHT22;38661;53.152;5.846;2022-11-14T07:21:11;6.40;92.70
52787;DHT22;38661;53.152;5.846;2022-11-14T07:23:38;6.40;92.70
52787;DHT22;38661;53.152;5.846;2022-11-14T07:26:06;6.40;92.70
52787;DHT22;38661;53.152;5.846;2022-11-14T07:28:40;6.40;92.70
52787;DHT22;38661;53.152;5.846;2022-11-14T07:31:07;6.40;92.80
52787;DHT22;38661;53.152;5.846;2022-11-14T07:33:33;6.40;92.80
52787;DHT22;38661;53.152;5.846;2022-11-14T07:36:00;6.50;92.80
52787;DHT22;38661;53.152;5.846;2022-11-14T07:38:25;6.50;92.80
52787;DHT22;38661;53.152;5.846;2022-11-14T07:40:58;6.50;92.70
52787;DHT22;38661;53.152;5.846;2022-11-14T07:43:25;6.50;92.70
52787;DHT22;38661;53.152;5.846;2022-11-14T07:45:51;6.40;92.80
52787;DHT22;38661;53.152;5.846;2022-11-14T07:48:17;6.50;92.80
52787;DHT22;38661;53.152;5.846;2022-11-14T07:50:43;6.40;92.80
52787;DHT22;38661;53.152;5.846;2022-11-14T07:53:08;6.40;92.80
52787;DHT22;38661;53.152;5.846;2022-11-14T07:55:35;6.40;92.80
52787;DHT22;38661;53.152;5.846;2022-11-14T07:58:01;6.50;92.80
52787;DHT22;38661;53.152;5.846;2022-11-14T08:00:27;6.50;92.80
52787;DHT22;38661;53.152;5.846;2022-11-14T08:02:53;6.50;92.80
52787;DHT22;38661;53.152;5.846;2022-11-14T08:05:18;6.50;92.80
52787;DHT22;38661;53.152;5.846;2022-11-14T08:07:44;6.50;92.80
52787;DHT22;38661;53.152;5.846;2022-11-14T08:10:10;6.60;92.90
52787;DHT22;38661;53.152;5.846;2022-11-14T08:12:38;6.60;92.80
52787;DHT22;38661;53.152;5.846;2022-11-14T08:15:09;6.60;92.80
52787;DHT22;38661;53.152;5.846;2022-11-14T08:17:35;6.60;92.80
52787;DHT22;38661;53.152;5.846;2022-11-14T08:20:02;6.60;92.70
52787;DHT22;38661;53.152;5.846;2022-11-14T08:22:28;6.60;92.60
52787;DHT22;38661;53.152;5.846;2022-11-14T08:24:53;6.60;92.60
52787;DHT22;38661;53.152;5.846;2022-11-14T08:27:19;6.50;92.60
52787;DHT22;38661;53.152;5.846;2022-11-14T08:29:44;6.60;92.70
52787;DHT22;38661;53.152;5.846;2022-11-14T08:32:10;6.60;92.60
52787;DHT22;38661;53.152;5.846;2022-11-14T08:34:36;6.60;92.60
52787;DHT22;38661;53.152;5.846;2022-11-14T08:37:02;6.70;92.70
52787;DHT22;38661;53.152;5.846;2022-11-14T08:39:28;6.60;92.60
52787;DHT22;38661;53.152;5.846;2022-11-14T08:41:54;6.70;92.70
52787;DHT22;38661;53.152;5.846;2022-11-14T08:44:20;6.70;92.70
52787;DHT22;38661;53.152;5.846;2022-11-14T08:46:45;6.70;92.60
52787;DHT22;38661;53.152;5.846;2022-11-14T08:49:11;6.70;92.60
52787;DHT22;38661;53.152;5.846;2022-11-14T08:51:37;6.70;92.60
52787;DHT22;38661;53.152;5.846;2022-11-14T08:54:03;6.80;92.60
52787;DHT22;38661;53.152;5.846;2022-11-14T08:56:28;6.70;92.40
52787;DHT22;38661;53.152;5.846;2022-11-14T08:58:54;6.70;92.40
52787;DHT22;38661;53.152;5.846;2022-11-14T09:01:20;6.70;92.30
52787;DHT22;38661;53.152;5.846;2022-11-14T09:03:45;6.80;92.30
52787;DHT22;38661;53.152;5.846;2022-11-14T09:06:11;6.80;92.30
52787;DHT22;38661;53.152;5.846;2022-11-14T09:08:37;6.80;92.20
52787;DHT22;38661;53.152;5.846;2022-11-14T09:11:03;6.90;92.30
52787;DHT22;38661;53.152;5.846;2022-11-14T09:13:34;6.90;92.20
52787;DHT22;38661;53.152;5.846;2022-11-14T09:16:00;7.00;92.10
52787;DHT22;38661;53.152;5.846;2022-11-14T09:18:26;7.00;92.00
52787;DHT22;38661;53.152;5.846;2022-11-14T09:20:51;7.00;92.10
52787;DHT22;38661;53.152;5.846;2022-11-14T09:23:17;7.00;92.00
52787;DHT22;38661;53.152;5.846;2022-11-14T09:25:43;7.10;92.00
52787;DHT22;38661;53.152;5.846;2022-11-14T09:28:09;7.20;91.90
52787;DHT22;38661;53.152;5.846;2022-11-14T09:30:35;7.30;91.90
52787;DHT22;38661;53.152;5.846;2022-11-14T09:33:03;7.40;91.70
52787;DHT22;38661;53.152;5.846;2022-11-14T09:35:30;7.40;91.50
52787;DHT22;38661;53.152;5.846;2022-11-14T09:38:00;7.50;91.40
52787;DHT22;38661;53.152;5.846;2022-11-14T09:40:26;7.50;91.30
52787;DHT22;38661;53.152;5.846;2022-11-14T09:45:23;7.60;91.00
52787;DHT22;38661;53.152;5.846;2022-11-14T09:47:53;7.60;90.90
52787;DHT22;38661;53.152;5.846;2022-11-14T09:50:32;7.60;90.60
52787;DHT22;38661;53.152;5.846;2022-11-14T09:53:04;7.60;90.50
52787;DHT22;38661;53.152;5.846;2022-11-14T09:55:32;7.70;90.40
52787;DHT22;38661;53.152;5.846;2022-11-14T09:58:01;7.80;90.30
52787;DHT22;38661;53.152;5.846;2022-11-14T10:01:07;7.80;90.10
52787;DHT22;38661;53.152;5.846;2022-11-14T10:04:15;7.90;89.80
52787;DHT22;38661;53.152;5.846;2022-11-14T10:06:59;8.00;89.70
52787;DHT22;38661;53.152;5.846;2022-11-14T10:10:02;8.10;89.40
52787;DHT22;38661;53.152;5.846;2022-11-14T10:15:52;8.30;88.80
52787;DHT22;38661;53.152;5.846;2022-11-14T10:26:25;8.60;88.40
52787;DHT22;38661;53.152;5.846;2022-11-14T10:31:52;8.80;87.90
52787;DHT22;38661;53.152;5.846;2022-11-14T10:34:36;8.90;87.90
52787;DHT22;38661;53.152;5.846;2022-11-14T10:37:40;9.00;87.70
52787;DHT22;38661;53.152;5.846;2022-11-14T10:40:29;9.10;87.50
52787;DHT22;38661;53.152;5.846;2022-11-14T10:43:05;9.20;87.00
52787;DHT22;38661;53.152;5.846;2022-11-14T10:45:49;9.30;87.10
52787;DHT22;38661;53.152;5.846;2022-11-14T10:48:24;9.40;86.70
52787;DHT22;38661;53.152;5.846;2022-11-14T10:53:47;9.60;86.50
52787;DHT22;38661;53.152;5.846;2022-11-14T10:56:14;9.70;86.50
52787;DHT22;38661;53.152;5.846;2022-11-14T10:58:41;9.80;85.80
52787;DHT22;38661;53.152;5.846;2022-11-14T11:01:36;9.90;86.10
52787;DHT22;38661;53.152;5.846;2022-11-14T11:04:33;10.10;86.10
52787;DHT22;38661;53.152;5.846;2022-11-14T11:09:34;10.40;85.60
52787;DHT22;38661;53.152;5.846;2022-11-14T11:12:45;10.40;84.00
52787;DHT22;38661;53.152;5.846;2022-11-14T11:15:22;10.50;84.30
52787;DHT22;38661;53.152;5.846;2022-11-14T11:18:02;10.60;84.50
52787;DHT22;38661;53.152;5.846;2022-11-14T11:20:35;10.70;84.20
52787;DHT22;38661;53.152;5.846;2022-11-14T11:23:23;10.80;83.90
52787;DHT22;38661;53.152;5.846;2022-11-14T11:26:02;10.90;82.90
52787;DHT22;38661;53.152;5.846;2022-11-14T11:28:36;11.00;83.40
52787;DHT22;38661;53.152;5.846;2022-11-14T11:31:07;11.20;83.20
52787;DHT22;38661;53.152;5.846;2022-11-14T11:33:34;11.30;82.60
52787;DHT22;38661;53.152;5.846;2022-11-14T11:38:32;11.30;81.70
52787;DHT22;38661;53.152;5.846;2022-11-14T11:41:27;11.40;81.60
52787;DHT22;38661;53.152;5.846;2022-11-14T11:44:01;11.50;81.60
52787;DHT22;38661;53.152;5.846;2022-11-14T11:46:50;11.60;80.50
52787;DHT22;38661;53.152;5.846;2022-11-14T11:52:25;11.90;79.90
52787;DHT22;38661;53.152;5.846;2022-11-14T11:57:47;11.90;78.40
52787;DHT22;38661;53.152;5.846;2022-11-14T12:00:20;11.90;78.40
52787;DHT22;38661;53.152;5.846;2022-11-14T12:02:50;12.00;77.90
52787;DHT22;38661;53.152;5.846;2022-11-14T12:08:25;12.10;77.50
52787;DHT22;38661;53.152;5.846;2022-11-14T12:10:55;12.20;77.60
52787;DHT22;38661;53.152;5.846;2022-11-14T12:16:30;12.40;76.60
52787;DHT22;38661;53.152;5.846;2022-11-14T12:30:48;13.00;76.30
52787;DHT22;38661;53.152;5.846;2022-11-14T12:33:25;13.00;75.40
52787;DHT22;38661;53.152;5.846;2022-11-14T12:36:02;13.00;75.60
52787;DHT22;38661;53.152;5.846;2022-11-14T12:38:39;13.10;75.30
52787;DHT22;38661;53.152;5.846;2022-11-14T12:41:07;13.20;75.40
52787;DHT22;38661;53.152;5.846;2022-11-14T12:43:38;13.30;75.10
52787;DHT22;38661;53.152;5.846;2022-11-14T12:46:06;13.30;74.30
52787;DHT22;38661;53.152;5.846;2022-11-14T12:48:44;13.30;72.80
52787;DHT22;38661;53.152;5.846;2022-11-14T12:57:13;13.50;73.50
52787;DHT22;38661;53.152;5.846;2022-11-14T13:00:05;13.60;73.30
52787;DHT22;38661;53.152;5.846;2022-11-14T13:05:53;14.00;72.20
52787;DHT22;38661;53.152;5.846;2022-11-14T13:11:36;14.10;70.40
52787;DHT22;38661;53.152;5.846;2022-11-14T13:14:22;14.30;71.60
52787;DHT22;38661;53.152;5.846;2022-11-14T13:20:02;14.30;71.60
52787;DHT22;38661;53.152;5.846;2022-11-14T13:33:43;14.00;70.60
52787;DHT22;38661;53.152;5.846;2022-11-14T13:39:17;14.00;70.80
52787;DHT22;38661;53.152;5.846;2022-11-14T13:45:33;14.00;70.60
52787;DHT22;38661;53.152;5.846;2022-11-14T13:50:39;13.90;70.30
52787;DHT22;38661;53.152;5.846;2022-11-14T13:53:16;13.80;70.30
52787;DHT22;38661;53.152;5.846;2022-11-14T14:10:17;13.70;69.80
52787;DHT22;38661;53.152;5.846;2022-11-14T14:15:35;13.70;70.60
52787;DHT22;38661;53.152;5.846;2022-11-14T14:18:16;13.70;70.70
52787;DHT22;38661;53.152;5.846;2022-11-14T14:20:45;13.50;69.70
52787;DHT22;38661;53.152;5.846;2022-11-14T14:23:29;13.50;71.10
52787;DHT22;38661;53.152;5.846;2022-11-14T14:31:17;13.20;71.50
52787;DHT22;38661;53.152;5.846;2022-11-14T14:33:50;13.20;71.70
52787;DHT22;38661;53.152;5.846;2022-11-14T14:36:25;13.10;71.60
52787;DHT22;38661;53.152;5.846;2022-11-14T14:41:40;13.00;71.80
52787;DHT22;38661;53.152;5.846;2022-11-14T14:46:45;12.60;72.70
52787;DHT22;38661;53.152;5.846;2022-11-14T14:52:38;12.20;73.40
52787;DHT22;38661;53.152;5.846;2022-11-14T14:55:15;11.90;73.80
52787;DHT22;38661;53.152;5.846;2022-11-14T14:57:42;11.80;74.30
52787;DHT22;38661;53.152;5.846;2022-11-14T15:00:23;11.50;74.50
52787;DHT22;38661;53.152;5.846;2022-11-14T15:02:54;11.40;75.00
52787;DHT22;38661;53.152;5.846;2022-11-14T15:05:24;11.10;75.50
52787;DHT22;38661;53.152;5.846;2022-11-14T15:07:57;10.90;75.90
52787;DHT22;38661;53.152;5.846;2022-11-14T15:10:28;10.70;76.50
52787;DHT22;38661;53.152;5.846;2022-11-14T15:12:55;10.50;76.90
52787;DHT22;38661;53.152;5.846;2022-11-14T15:15:23;10.40;77.40
52787;DHT22;38661;53.152;5.846;2022-11-14T15:17:53;10.20;77.60
52787;DHT22;38661;53.152;5.846;2022-11-14T15:20:28;10.10;78.00
52787;DHT22;38661;53.152;5.846;2022-11-14T15:23:05;10.00;78.40
52787;DHT22;38661;53.152;5.846;2022-11-14T15:25:42;9.80;78.90
52787;DHT22;38661;53.152;5.846;2022-11-14T15:28:20;9.60;79.40
52787;DHT22;38661;53.152;5.846;2022-11-14T15:31:00;9.60;79.60
52787;DHT22;38661;53.152;5.846;2022-11-14T15:33:31;9.40;79.80
52787;DHT22;38661;53.152;5.846;2022-11-14T15:36:10;9.30;80.20
52787;DHT22;38661;53.152;5.846;2022-11-14T15:38:36;9.20;80.50
52787;DHT22;38661;53.152;5.846;2022-11-14T15:41:19;9.10;80.90
52787;DHT22;38661;53.152;5.846;2022-11-14T15:43:50;9.10;81.20
52787;DHT22;38661;53.152;5.846;2022-11-14T15:54:26;9.00;81.90
52787;DHT22;38661;53.152;5.846;2022-11-14T15:56:54;9.00;82.20
52787;DHT22;38661;53.152;5.846;2022-11-14T15:59:20;9.00;82.10
52787;DHT22;38661;53.152;5.846;2022-11-14T16:01:49;9.00;82.10
52787;DHT22;38661;53.152;5.846;2022-11-14T16:04:27;9.00;83.40
52787;DHT22;38661;53.152;5.846;2022-11-14T16:06:53;9.00;82.70
52787;DHT22;38661;53.152;5.846;2022-11-14T16:09:20;9.00;82.80
52787;DHT22;38661;53.152;5.846;2022-11-14T16:11:46;9.00;82.70
52787;DHT22;38661;53.152;5.846;2022-11-14T16:14:12;9.00;82.90
52787;DHT22;38661;53.152;5.846;2022-11-14T16:16:38;9.00;83.30
52787;DHT22;38661;53.152;5.846;2022-11-14T16:19:05;9.00;83.00
52787;DHT22;38661;53.152;5.846;2022-11-14T16:21:31;9.00;83.20
52787;DHT22;38661;53.152;5.846;2022-11-14T16:23:59;9.00;83.10
52787;DHT22;38661;53.152;5.846;2022-11-14T16:26:25;8.90;83.20
52787;DHT22;38661;53.152;5.846;2022-11-14T16:28:51;8.80;83.40
52787;DHT22;38661;53.152;5.846;2022-11-14T16:31:17;8.80;83.10
52787;DHT22;38661;53.152;5.846;2022-11-14T16:33:43;8.80;83.20
52787;DHT22;38661;53.152;5.846;2022-11-14T16:36:10;8.80;83.10
52787;DHT22;38661;53.152;5.846;2022-11-14T16:38:37;8.80;83.30
52787;DHT22;38661;53.152;5.846;2022-11-14T16:41:07;8.80;83.00
52787;DHT22;38661;53.152;5.846;2022-11-14T16:43:33;8.80;83.10
52787;DHT22;38661;53.152;5.846;2022-11-14T16:46:05;8.80;83.40
52787;DHT22;38661;53.152;5.846;2022-11-14T16:48:32;8.70;83.30
52787;DHT22;38661;53.152;5.846;2022-11-14T16:51:01;8.70;83.40
52787;DHT22;38661;53.152;5.846;2022-11-14T16:53:28;8.70;83.50
52787;DHT22;38661;53.152;5.846;2022-11-14T16:55:55;8.60;83.90
52787;DHT22;38661;53.152;5.846;2022-11-14T16:58:21;8.70;83.80
52787;DHT22;38661;53.152;5.846;2022-11-14T17:00:47;8.70;83.90
52787;DHT22;38661;53.152;5.846;2022-11-14T17:03:13;8.70;84.30
52787;DHT22;38661;53.152;5.846;2022-11-14T17:05:47;8.70;84.00
52787;DHT22;38661;53.152;5.846;2022-11-14T17:08:13;8.60;84.30
52787;DHT22;38661;53.152;5.846;2022-11-14T17:10:40;8.60;84.60
52787;DHT22;38661;53.152;5.846;2022-11-14T17:13:06;8.60;84.50
52787;DHT22;38661;53.152;5.846;2022-11-14T17:15:32;8.60;84.70
52787;DHT22;38661;53.152;5.846;2022-11-14T17:17:58;8.70;84.40
52787;DHT22;38661;53.152;5.846;2022-11-14T17:20:24;8.70;84.40
52787;DHT22;38661;53.152;5.846;2022-11-14T17:22:49;8.70;84.30
52787;DHT22;38661;53.152;5.846;2022-11-14T17:25:15;8.70;84.40
52787;DHT22;38661;53.152;5.846;2022-11-14T17:27:41;8.70;84.50
52787;DHT22;38661;53.152;5.846;2022-11-14T17:30:11;8.70;84.70
52787;DHT22;38661;53.152;5.846;2022-11-14T17:32:37;8.70;85.00
52787;DHT22;38661;53.152;5.846;2022-11-14T17:35:04;8.70;85.10
52787;DHT22;38661;53.152;5.846;2022-11-14T17:37:29;8.70;85.20
52787;DHT22;38661;53.152;5.846;2022-11-14T17:39:55;8.70;85.50
52787;DHT22;38661;53.152;5.846;2022-11-14T17:42:21;8.70;85.60
52787;DHT22;38661;53.152;5.846;2022-11-14T17:44:47;8.60;85.40
52787;DHT22;38661;53.152;5.846;2022-11-14T17:47:13;8.60;85.70
52787;DHT22;38661;53.152;5.846;2022-11-14T17:49:38;8.70;85.80
52787;DHT22;38661;53.152;5.846;2022-11-14T17:52:04;8.70;85.80
52787;DHT22;38661;53.152;5.846;2022-11-14T17:54:29;8.60;85.70
52787;DHT22;38661;53.152;5.846;2022-11-14T17:56:55;8.60;85.80
52787;DHT22;38661;53.152;5.846;2022-11-14T17:59:23;8.70;85.80